createdAt,value
2023-03-03T05:08:23.363Z,47.30
2023-03-03T05:10:56.920Z,47.20
2023-03-03T05:13:26.317Z,46.90
2023-03-03T05:15:57.698Z,46.80
2023-03-03T05:18:27.752Z,47.30
2023-03-03T05:20:57.343Z,47.70
2023-03-03T05:23:29.800Z,46.80
2023-03-03T05:25:59.255Z,47.40
2023-03-03T05:28:28.757Z,46.70
2023-03-03T05:30:58.269Z,47.70
2023-03-03T05:33:27.741Z,48.20
2023-03-03T05:35:57.928Z,48.40
2023-03-03T05:38:27.558Z,48.60
2023-03-03T05:40:57.051Z,48.80
2023-03-03T05:43:26.569Z,49.00
2023-03-03T05:45:59.653Z,49.40
2023-03-03T05:48:29.684Z,49.30
2023-03-03T05:51:02.521Z,49.20
2023-03-03T05:53:32.354Z,50.00
2023-03-03T05:56:01.949Z,50.50
2023-03-03T05:58:31.968Z,50.70
2023-03-03T06:01:01.349Z,50.30
2023-03-03T06:03:33.843Z,50.10
2023-03-03T06:06:08.124Z,49.90
2023-03-03T06:47:43.213Z,52.80
2023-03-03T06:50:13.640Z,53.60
2023-03-03T06:52:42.999Z,53.90
2023-03-03T06:55:15.099Z,54.00
2023-03-03T06:57:44.557Z,54.60
2023-03-03T07:00:18.787Z,54.30
2023-03-03T07:02:48.926Z,54.50
2023-03-03T07:05:20.071Z,54.90
2023-03-03T07:07:50.964Z,54.90
2023-03-03T07:10:24.377Z,55.10
2023-03-03T07:13:00.176Z,55.30
2023-03-03T07:15:36.205Z,55.30
2023-03-03T07:18:25.240Z,55.60
2023-03-03T07:20:57.822Z,55.80
2023-03-03T07:23:32.386Z,55.80
2023-03-03T07:26:01.883Z,56.10
2023-03-03T07:28:31.999Z,56.50
2023-03-03T07:31:02.218Z,56.50
2023-03-03T07:33:33.892Z,56.50
2023-03-03T07:36:04.234Z,56.60
2023-03-03T07:38:36.323Z,56.90
2023-03-03T07:41:07.561Z,56.70
2023-03-03T07:43:42.422Z,56.60
2023-03-03T07:46:16.732Z,56.80
2023-03-03T07:48:49.364Z,57.00
2023-03-03T07:51:30.651Z,57.00
2023-03-03T07:54:15.245Z,57.20
2023-03-03T07:56:44.660Z,57.30
2023-03-03T07:59:29.363Z,57.70
2023-03-03T08:02:03.689Z,57.80
2023-03-03T08:04:37.011Z,58.20
2023-03-03T08:07:15.053Z,58.50
2023-03-03T08:09:47.608Z,58.70
2023-03-03T08:12:21.137Z,59.00
2023-03-03T08:14:53.429Z,59.10
2023-03-03T08:17:25.243Z,59.10
2023-03-03T08:19:55.504Z,59.50
2023-03-03T08:22:28.370Z,59.60
2023-03-03T08:24:57.742Z,59.80
2023-03-03T08:27:27.216Z,60.40
2023-03-03T08:29:56.683Z,60.60
2023-03-03T08:32:26.172Z,60.80
2023-03-03T08:34:55.569Z,60.80
2023-03-03T08:37:26.004Z,60.90
2023-03-03T08:39:58.311Z,61.20
2023-03-03T08:42:27.814Z,61.60
2023-03-03T08:57:51.564Z,62.40
2023-03-03T09:00:21.985Z,62.30
2023-03-03T09:02:54.225Z,62.50
2023-03-03T09:05:24.199Z,62.70
2023-03-03T09:07:56.678Z,62.70
2023-03-03T09:10:32.405Z,62.70
2023-03-03T09:13:05.233Z,63.20
2023-03-03T09:15:36.492Z,63.20
2023-03-03T09:18:24.688Z,63.20
2023-03-03T09:20:56.083Z,63.30
2023-03-03T09:23:39.226Z,63.30
2023-03-03T09:26:21.675Z,63.50
2023-03-03T09:28:51.498Z,63.20
2023-03-03T09:31:54.668Z,63.40
2023-03-03T09:34:30.357Z,63.60
2023-03-03T09:37:03.172Z,63.70
2023-03-03T09:39:33.065Z,63.30
2023-03-03T09:42:05.422Z,63.40
2023-03-03T09:44:37.766Z,63.40
2023-03-03T09:47:25.308Z,63.50
2023-03-03T09:50:20.337Z,63.20
2023-03-03T09:53:04.810Z,63.90
2023-03-03T09:55:46.795Z,64.10
2023-03-03T09:58:26.102Z,64.40
2023-03-03T10:00:59.143Z,64.10
2023-03-03T10:03:49.988Z,64.20
2023-03-03T10:06:32.332Z,64.30
2023-03-03T10:09:07.978Z,64.20
2023-03-03T10:11:58.643Z,64.30
2023-03-03T10:14:55.515Z,64.30
2023-03-03T10:17:43.336Z,64.30
2023-03-03T10:20:47.519Z,64.10
2023-03-03T10:23:43.405Z,64.20
2023-03-03T10:26:42.195Z,64.10
2023-03-03T10:29:23.674Z,64.30
2023-03-03T10:31:57.497Z,64.40
2023-03-03T10:34:49.126Z,64.30
2023-03-03T10:37:29.568Z,64.50
2023-03-03T10:40:07.835Z,64.70
2023-03-03T10:42:48.090Z,65.00
2023-03-03T10:45:18.048Z,65.00
2023-03-03T10:47:56.222Z,65.10
2023-03-03T10:50:32.219Z,65.20
2023-03-03T10:53:20.726Z,65.20
2023-03-03T10:56:01.155Z,65.10
2023-03-03T10:58:38.761Z,65.00
2023-03-03T11:01:12.014Z,65.30
2023-03-03T11:04:08.746Z,65.30
2023-03-03T11:06:47.489Z,65.40
2023-03-03T11:09:42.058Z,65.40
2023-03-03T11:12:22.799Z,65.20
2023-03-03T11:15:10.866Z,65.40
2023-03-03T11:18:02.383Z,65.60
2023-03-03T11:20:31.809Z,65.50
2023-03-03T11:23:07.310Z,65.70
2023-03-03T11:25:48.679Z,65.70
2023-03-03T11:28:21.069Z,66.00
2023-03-03T11:31:05.817Z,65.90
2023-03-03T11:33:35.610Z,66.10
2023-03-03T11:36:14.320Z,66.10
2023-03-03T16:07:11.743Z,67.50
2023-03-03T16:09:49.708Z,67.40
2023-03-03T16:12:37.881Z,67.90
2023-03-03T16:15:30.390Z,67.80
2023-03-03T16:18:18.352Z,68.10
2023-03-03T16:21:16.628Z,68.10
2023-03-03T16:23:46.439Z,68.40
2023-03-03T16:26:31.664Z,68.50
2023-03-03T16:29:21.001Z,68.40
2023-03-03T16:31:51.784Z,68.30
2023-03-03T16:34:28.638Z,68.40
2023-03-03T16:37:13.297Z,68.60
2023-03-03T16:39:45.889Z,68.90
2023-03-03T16:42:34.857Z,69.20
2023-03-03T16:45:04.184Z,69.40
2023-03-03T16:48:05.787Z,69.00
2023-03-03T16:50:41.568Z,69.00
2023-03-03T16:53:26.156Z,69.30
2023-03-03T16:56:13.629Z,69.20
2023-03-03T16:58:42.989Z,69.40
2023-03-03T17:01:15.506Z,69.60
2023-03-03T17:03:59.715Z,69.70
2023-03-03T17:06:42.973Z,69.80
2023-03-03T17:09:20.378Z,69.70
2023-03-03T17:12:04.177Z,69.70
2023-03-03T17:14:51.814Z,69.80
2023-03-03T17:17:33.339Z,69.90
2023-03-03T17:20:23.431Z,69.90
2023-03-03T17:23:05.046Z,70.20
2023-03-03T17:25:52.423Z,70.20
2023-03-03T17:28:33.271Z,70.10
2023-03-03T17:31:15.687Z,70.30
2023-03-03T17:33:51.394Z,70.20
2023-03-03T17:36:26.901Z,70.30
2023-03-03T17:38:59.074Z,70.30
2023-03-03T17:41:47.223Z,70.20
2023-03-03T17:44:43.060Z,70.40
2023-03-03T17:47:23.346Z,70.80
2023-03-03T17:50:10.823Z,71.10
2023-03-03T17:52:48.275Z,71.30
2023-03-03T17:55:27.422Z,71.30
2023-03-03T17:57:56.723Z,71.50
2023-03-03T18:00:44.622Z,71.70
2023-03-03T18:03:17.023Z,71.90
2023-03-03T18:05:46.370Z,71.70
2023-03-03T18:08:30.531Z,71.70
2023-03-03T18:11:15.045Z,71.60
2023-03-03T18:13:55.983Z,71.80
2023-03-03T18:16:28.853Z,71.70
2023-03-03T18:19:16.686Z,71.80
2023-03-03T18:21:53.502Z,71.60
2023-03-03T18:24:31.231Z,71.50
2023-03-03T18:27:15.325Z,71.60
2023-03-03T18:53:22.950Z,71.80
2023-03-03T18:55:53.690Z,71.80
2023-03-03T18:58:23.477Z,71.80
2023-03-03T19:00:55.875Z,72.00
2023-03-03T19:03:35.108Z,72.00
2023-03-03T19:06:05.526Z,72.40
2023-03-03T19:08:55.833Z,72.70
2023-03-03T19:11:46.869Z,72.50
2023-03-03T19:14:16.615Z,72.50
2023-03-03T19:16:46.867Z,72.40
2023-03-03T19:19:20.349Z,72.00
2023-03-03T19:21:52.806Z,72.00
2023-03-03T19:24:25.238Z,72.00
2023-03-03T19:27:07.106Z,72.00
2023-03-03T19:29:48.410Z,72.00
2023-03-03T19:32:28.507Z,71.90
2023-03-03T19:34:58.411Z,71.70
2023-03-03T19:37:45.888Z,71.50
2023-03-03T19:40:27.599Z,71.20
2023-03-03T19:43:07.094Z,71.40
2023-03-03T19:45:36.844Z,71.60
2023-03-03T19:48:09.389Z,71.50
2023-03-03T19:50:39.180Z,71.30
2023-03-03T19:56:12.591Z,70.70
2023-03-03T19:58:43.715Z,70.60
2023-03-03T20:01:51.516Z,70.90
2023-03-03T20:04:37.128Z,71.00
2023-03-03T20:07:17.435Z,71.50
2023-03-03T20:09:56.810Z,70.90
2023-03-03T20:12:26.225Z,70.80
2023-03-03T20:14:56.899Z,70.70
2023-03-03T20:17:29.311Z,70.80
2023-03-03T20:20:05.599Z,70.90
2023-03-03T20:22:40.978Z,70.80
2023-03-03T20:25:10.421Z,70.90
2023-03-03T20:27:57.748Z,70.50
2023-03-03T20:30:27.853Z,70.20
2023-03-03T20:33:00.190Z,70.40
2023-03-03T20:36:01.904Z,69.80
2023-03-03T20:38:34.569Z,69.90
2023-03-03T20:41:22.503Z,69.60
2023-03-03T20:44:09.965Z,69.60
2023-03-03T20:46:48.954Z,69.70
2023-03-03T20:49:36.522Z,69.50
2023-03-03T20:52:24.231Z,69.60
2023-03-03T22:40:52.395Z,66.20
2023-03-03T22:43:22.129Z,66.30
2023-03-03T22:45:53.656Z,66.40
2023-03-03T22:48:25.130Z,66.10
2023-03-03T22:50:55.298Z,65.80
2023-03-03T22:53:25.487Z,65.60
2023-03-03T22:55:55.029Z,65.70
2023-03-03T22:58:28.858Z,65.90
2023-03-03T23:00:58.342Z,66.10
2023-03-03T23:03:28.795Z,66.20
2023-03-03T23:11:15.361Z,64.00
2023-03-03T23:13:44.714Z,64.10
2023-03-03T23:16:14.105Z,63.50
2023-03-03T23:18:44.395Z,63.40
2023-03-03T23:21:13.771Z,62.90
2023-03-03T23:23:43.133Z,63.00
2023-03-03T23:26:12.972Z,62.80
2023-03-03T23:28:42.382Z,63.30
2023-03-03T23:31:11.769Z,63.40
2023-03-03T23:33:41.209Z,63.30
2023-03-03T23:36:11.922Z,62.90
2023-03-03T23:38:43.087Z,63.20
2023-03-03T23:41:12.619Z,63.30
2023-03-03T23:43:42.832Z,63.20
2023-03-03T23:46:12.650Z,62.80
2023-03-03T23:48:42.251Z,63.00
2023-03-03T23:51:11.724Z,62.40
2023-03-03T23:53:41.179Z,61.60
2023-03-03T23:56:10.595Z,60.10
2023-03-03T23:58:40.468Z,60.20
